createdAt,value
2018-08-12T00:00:50.918Z,10.84
2018-08-12T00:01:51.157Z,10.81
2018-08-12T00:02:51.394Z,10.81
2018-08-12T00:03:51.634Z,10.71
2018-08-12T00:04:51.873Z,10.68
2018-08-12T00:05:52.119Z,10.63
2018-08-12T00:06:52.352Z,10.61
2018-08-12T00:07:52.591Z,10.59
2018-08-12T00:08:52.830Z,10.53
2018-08-12T00:09:53.070Z,10.53
2018-08-12T00:10:53.308Z,10.51
2018-08-12T00:11:53.548Z,10.60
2018-08-12T00:12:53.786Z,10.55
2018-08-12T00:13:54.025Z,10.45
2018-08-12T00:14:54.263Z,10.52
2018-08-12T00:15:54.501Z,10.44
2018-08-12T00:16:54.740Z,10.51
2018-08-12T00:17:54.979Z,10.55
2018-08-12T00:18:55.221Z,10.47
2018-08-12T00:19:55.457Z,10.44
2018-08-12T00:20:55.697Z,10.36
2018-08-12T00:21:55.935Z,10.41
2018-08-12T00:22:56.173Z,10.38
2018-08-12T00:23:56.412Z,10.40
2018-08-12T00:24:56.650Z,10.41
2018-08-12T00:25:56.890Z,10.30
2018-08-12T00:26:57.128Z,10.32
2018-08-12T00:27:57.371Z,10.27
2018-08-12T00:28:57.605Z,10.25
2018-08-12T00:29:57.845Z,10.32
2018-08-12T00:30:58.083Z,10.27
2018-08-12T00:31:58.322Z,10.27
2018-08-12T00:32:58.560Z,10.34
2018-08-12T00:33:58.799Z,10.29
2018-08-12T00:34:59.038Z,10.34
2018-08-12T00:35:59.276Z,10.38
2018-08-12T00:36:59.514Z,10.30
2018-08-12T00:37:59.752Z,10.26
2018-08-12T00:38:59.992Z,10.27
2018-08-12T00:40:00.235Z,10.25
2018-08-12T00:41:00.469Z,10.32
2018-08-12T00:42:00.713Z,10.17
2018-08-12T00:43:00.946Z,10.17
2018-08-12T00:44:01.187Z,10.07
2018-08-12T00:45:01.423Z,10.07
2018-08-12T00:46:01.660Z,10.12
2018-08-12T00:47:01.898Z,10.15
2018-08-12T00:48:02.137Z,10.32
2018-08-12T00:49:02.376Z,10.41
2018-08-12T00:50:02.614Z,10.64
2018-08-12T00:51:02.854Z,10.73
2018-08-12T00:52:03.092Z,10.53
2018-08-12T00:53:03.330Z,10.40
2018-08-12T00:54:03.570Z,10.32
2018-08-12T00:55:03.810Z,10.18
2018-08-12T00:56:04.047Z,10.14
2018-08-12T00:57:04.285Z,10.02
2018-08-12T00:58:04.523Z,9.86
2018-08-12T00:59:04.764Z,9.74
2018-08-12T01:00:05.003Z,9.58
2018-08-12T01:01:05.241Z,9.64
2018-08-12T01:02:05.478Z,9.56
2018-08-12T01:03:05.714Z,9.43
2018-08-12T01:04:05.953Z,9.47
2018-08-12T01:05:06.191Z,9.58
2018-08-12T01:06:06.431Z,9.66
2018-08-12T01:07:06.669Z,9.64
2018-08-12T01:08:06.906Z,9.50
2018-08-12T01:09:07.144Z,9.64
2018-08-12T01:10:07.380Z,9.68
2018-08-12T01:11:07.608Z,9.66
2018-08-12T01:12:07.855Z,9.86
2018-08-12T01:13:08.091Z,10.01
2018-08-12T01:14:08.329Z,10.01
2018-08-12T01:15:08.566Z,10.08
2018-08-12T01:16:08.803Z,10.12
2018-08-12T01:17:09.044Z,10.08
2018-08-12T01:18:09.277Z,9.99
2018-08-12T01:19:09.515Z,10.02
2018-08-12T01:20:09.758Z,9.93
2018-08-12T01:21:09.990Z,9.86
2018-08-12T01:22:10.227Z,9.87
2018-08-12T01:23:10.468Z,9.75
2018-08-12T01:24:10.703Z,9.69
2018-08-12T01:25:10.940Z,9.68
2018-08-12T01:26:11.179Z,9.68
2018-08-12T01:27:11.417Z,9.71
2018-08-12T01:28:11.653Z,9.78
2018-08-12T01:29:11.891Z,9.91
2018-08-12T01:30:12.129Z,10.05
2018-08-12T01:31:12.367Z,10.22
2018-08-12T01:32:12.607Z,10.26
2018-08-12T01:33:12.843Z,10.45
2018-08-12T01:34:13.086Z,10.51
2018-08-12T01:35:13.321Z,10.61
2018-08-12T01:36:13.557Z,10.66
2018-08-12T01:37:13.796Z,10.60
2018-08-12T01:38:14.036Z,10.53
2018-08-12T01:39:14.272Z,10.48
2018-08-12T01:40:14.508Z,10.38
2018-08-12T01:41:14.745Z,10.18
2018-08-12T01:42:14.983Z,10.11
2018-08-12T01:43:15.220Z,10.02
2018-08-12T01:44:15.461Z,9.89
2018-08-12T01:45:15.696Z,9.81
2018-08-12T01:46:15.933Z,9.71
2018-08-12T01:47:16.171Z,9.60
2018-08-12T01:48:16.409Z,9.53
2018-08-12T01:49:16.646Z,9.53
2018-08-12T01:50:16.884Z,9.51
2018-08-12T01:51:17.121Z,9.51
2018-08-12T01:52:17.359Z,9.64
2018-08-12T01:53:17.597Z,9.66
2018-08-12T01:54:17.835Z,9.81
2018-08-12T01:55:18.072Z,9.76
2018-08-12T01:56:18.312Z,9.86
2018-08-12T01:57:18.550Z,9.84
2018-08-12T01:58:18.787Z,9.78
2018-08-12T01:59:19.027Z,9.89
2018-08-12T02:00:19.263Z,9.90
2018-08-12T02:01:19.502Z,9.90
2018-08-12T02:02:19.738Z,9.90
2018-08-12T02:03:19.976Z,10.02
2018-08-12T02:04:20.212Z,10.02
2018-08-12T02:05:20.449Z,10.02
2018-08-12T02:06:20.686Z,10.12
2018-08-12T02:07:20.924Z,10.17
2018-08-12T02:08:21.162Z,10.27
2018-08-12T02:09:21.400Z,10.41
2018-08-12T02:10:21.640Z,10.36
2018-08-12T02:11:21.874Z,10.23
2018-08-12T02:12:22.113Z,10.11
2018-08-12T02:13:22.351Z,9.93
2018-08-12T02:14:22.589Z,9.65
2018-08-12T02:15:22.828Z,9.56
2018-08-12T02:16:23.064Z,9.36
2018-08-12T02:17:23.302Z,9.39
2018-08-12T02:18:23.540Z,9.26
2018-08-12T02:19:23.778Z,9.29
2018-08-12T02:20:24.017Z,9.17
2018-08-12T02:21:24.254Z,9.20
2018-08-12T02:22:24.492Z,9.04
2018-08-12T02:23:24.728Z,9.13
2018-08-12T02:24:24.964Z,9.08
2018-08-12T02:25:25.203Z,9.13
2018-08-12T02:26:25.440Z,9.05
2018-08-12T02:27:25.677Z,9.11
2018-08-12T02:28:25.914Z,9.20
2018-08-12T02:29:26.152Z,9.17
2018-08-12T02:30:26.389Z,9.21
2018-08-12T02:31:26.626Z,9.21
2018-08-12T02:32:26.867Z,9.08
2018-08-12T02:33:27.101Z,9.05
2018-08-12T02:34:27.339Z,9.13
2018-08-12T02:35:27.577Z,9.17
2018-08-12T02:36:27.813Z,9.11
2018-08-12T02:37:28.053Z,9.11
2018-08-12T02:38:28.289Z,9.08
2018-08-12T02:39:28.523Z,8.98
2018-08-12T02:40:28.762Z,9.02
2018-08-12T02:41:29.004Z,8.95
2018-08-12T02:42:29.235Z,8.92
2018-08-12T02:43:29.474Z,8.91
2018-08-12T02:44:29.714Z,8.92
2018-08-12T02:45:29.948Z,8.77
2018-08-12T02:46:30.184Z,8.89
2018-08-12T02:47:30.421Z,8.79
2018-08-12T02:48:30.656Z,8.73
2018-08-12T02:49:30.897Z,8.76
2018-08-12T02:50:31.132Z,8.79
2018-08-12T02:51:31.370Z,8.79
2018-08-12T02:52:31.609Z,8.71
2018-08-12T02:53:31.847Z,8.79
2018-08-12T02:54:32.084Z,8.65
2018-08-12T02:55:32.321Z,8.65
2018-08-12T02:56:32.560Z,8.74
2018-08-12T02:57:32.799Z,8.70
2018-08-12T02:58:33.037Z,8.81
2018-08-12T02:59:33.273Z,8.86
2018-08-12T03:00:33.510Z,8.94
2018-08-12T03:01:33.747Z,8.95
2018-08-12T03:02:33.985Z,8.92
2018-08-12T03:03:34.222Z,8.89
2018-08-12T03:04:34.459Z,8.94
2018-08-12T03:05:34.696Z,8.96
2018-08-12T03:06:34.934Z,8.99
2018-08-12T03:07:35.173Z,9.08
2018-08-12T03:08:35.410Z,9.21
2018-08-12T03:09:35.650Z,9.24
2018-08-12T03:10:35.887Z,9.18
2018-08-12T03:11:36.123Z,9.15
2018-08-12T03:12:36.359Z,9.17
2018-08-12T03:13:36.596Z,9.02
2018-08-12T03:14:36.833Z,8.96
2018-08-12T03:15:37.071Z,8.91
2018-08-12T03:16:37.309Z,8.87
2018-08-12T03:17:37.546Z,8.84
2018-08-12T03:18:37.785Z,8.74
2018-08-12T03:19:38.019Z,8.66
2018-08-12T03:20:38.259Z,8.63
2018-08-12T03:21:38.496Z,8.58
2018-08-12T03:22:38.735Z,8.52
2018-08-12T03:23:38.972Z,8.44
2018-08-12T03:24:39.210Z,8.48
2018-08-12T03:25:39.447Z,8.37
2018-08-12T03:26:39.686Z,8.37
2018-08-12T03:27:39.923Z,8.40
2018-08-12T03:28:40.162Z,8.36
2018-08-12T03:29:40.398Z,8.34
2018-08-12T03:30:40.636Z,8.37
2018-08-12T03:31:40.875Z,8.40
2018-08-12T03:32:41.111Z,8.38
2018-08-12T03:33:41.351Z,8.43
2018-08-12T03:34:41.589Z,8.38
2018-08-12T03:35:41.827Z,8.38
2018-08-12T03:36:42.065Z,8.50
2018-08-12T03:37:42.303Z,8.58
2018-08-12T03:38:42.540Z,8.55
2018-08-12T03:39:42.778Z,8.43
2018-08-12T03:40:43.015Z,8.47
2018-08-12T03:41:43.253Z,8.40
2018-08-12T03:42:43.491Z,8.41
2018-08-12T03:43:43.728Z,8.34
2018-08-12T03:44:43.967Z,8.23
2018-08-12T03:45:44.205Z,8.15
2018-08-12T03:46:44.442Z,8.15
2018-08-12T03:47:44.680Z,8.10
2018-08-12T03:48:44.970Z,7.95
2018-08-12T03:49:45.155Z,8.11
2018-08-12T03:50:45.395Z,8.04
2018-08-12T03:51:45.629Z,8.00
2018-08-12T03:52:45.867Z,8.15
2018-08-12T03:53:46.104Z,8.00
2018-08-12T03:54:46.341Z,7.92
2018-08-12T03:55:46.579Z,7.97
2018-08-12T03:56:46.814Z,7.92
2018-08-12T03:57:47.052Z,7.90
2018-08-12T03:58:47.289Z,8.00
2018-08-12T03:59:47.528Z,7.92
2018-08-12T04:00:47.764Z,7.90
2018-08-12T04:01:48.001Z,7.98
2018-08-12T04:02:48.238Z,8.01
2018-08-12T04:03:48.475Z,8.08
2018-08-12T04:04:48.713Z,8.12
2018-08-12T04:05:48.950Z,8.18
2018-08-12T04:06:49.187Z,8.23
2018-08-12T04:07:49.425Z,8.28
2018-08-12T04:08:49.664Z,8.34
2018-08-12T04:09:49.899Z,8.36
2018-08-12T04:10:50.136Z,8.28
2018-08-12T04:11:50.373Z,8.33
2018-08-12T04:12:50.610Z,8.33
2018-08-12T04:13:50.848Z,8.30
2018-08-12T04:14:51.085Z,8.30
2018-08-12T04:15:51.322Z,8.25
2018-08-12T04:16:51.560Z,8.26
2018-08-12T04:17:51.797Z,8.28
2018-08-12T04:18:52.062Z,8.22
2018-08-12T04:19:52.273Z,8.23
2018-08-12T04:20:52.509Z,8.18
2018-08-12T04:21:52.748Z,8.33
2018-08-12T04:22:52.985Z,8.28
2018-08-12T04:23:53.223Z,8.33
2018-08-12T04:24:53.461Z,8.34
2018-08-12T04:25:53.698Z,8.37
2018-08-12T04:26:53.935Z,8.40
2018-08-12T04:27:54.174Z,8.48
2018-08-12T04:28:54.410Z,8.50
2018-08-12T04:29:54.648Z,8.48
2018-08-12T04:30:54.885Z,8.58
2018-08-12T04:31:55.122Z,8.48
2018-08-12T04:32:55.360Z,8.45
2018-08-12T04:33:55.598Z,8.48
2018-08-12T04:34:55.833Z,8.56
2018-08-12T04:35:56.075Z,8.59
2018-08-12T04:36:56.311Z,8.73
2018-08-12T04:37:56.548Z,8.79
2018-08-12T04:38:56.786Z,8.83
2018-08-12T04:39:57.024Z,8.87
2018-08-12T04:40:57.262Z,8.95
2018-08-12T04:41:57.499Z,8.99
2018-08-12T04:42:57.737Z,9.08
2018-08-12T04:43:57.976Z,9.05
2018-08-12T04:44:58.212Z,9.10
2018-08-12T04:45:58.484Z,9.15
2018-08-12T04:46:58.689Z,9.26
2018-08-12T04:47:58.962Z,9.39
2018-08-12T04:48:59.164Z,9.42
2018-08-12T04:49:59.402Z,9.56
2018-08-12T04:50:59.642Z,9.53
2018-08-12T04:51:59.877Z,9.68
2018-08-12T04:53:00.115Z,9.75
2018-08-12T04:54:00.352Z,9.81
2018-08-12T04:55:00.591Z,9.90
2018-08-12T04:56:00.829Z,10.02
2018-08-12T04:57:01.069Z,9.91
2018-08-12T04:58:01.307Z,9.96
2018-08-12T04:59:01.544Z,10.05
2018-08-12T05:00:01.785Z,10.11
2018-08-12T05:01:02.024Z,10.08
2018-08-12T05:02:02.262Z,10.18
2018-08-12T05:03:02.499Z,10.15
2018-08-12T05:04:02.739Z,10.23
2018-08-12T05:05:02.977Z,10.25
2018-08-12T05:06:03.217Z,10.26
2018-08-12T05:07:03.455Z,10.29
2018-08-12T05:08:03.693Z,10.36
2018-08-12T05:09:03.932Z,10.30
2018-08-12T05:10:04.177Z,10.40
2018-08-12T05:11:04.410Z,10.40
2018-08-12T05:12:04.648Z,10.29
2018-08-12T05:13:04.887Z,10.18
2018-08-12T05:14:05.126Z,10.17
2018-08-12T05:15:05.363Z,10.15
2018-08-12T05:16:05.603Z,10.15
2018-08-12T05:17:05.840Z,10.18
2018-08-12T05:18:06.081Z,10.22
2018-08-12T05:19:06.318Z,10.26
2018-08-12T05:20:06.557Z,10.23
2018-08-12T05:21:06.795Z,10.22
2018-08-12T05:22:07.034Z,10.20
2018-08-12T05:23:07.275Z,10.22
2018-08-12T05:24:07.541Z,10.32
2018-08-12T05:25:07.748Z,10.44
2018-08-12T05:26:07.987Z,10.47
2018-08-12T05:27:08.226Z,10.55
2018-08-12T05:28:08.465Z,10.66
2018-08-12T05:29:08.704Z,10.71
2018-08-12T05:30:08.943Z,10.73
2018-08-12T05:31:09.179Z,10.71
2018-08-12T05:32:09.418Z,10.66
2018-08-12T05:33:09.656Z,10.61
2018-08-12T05:34:09.898Z,10.60
2018-08-12T05:35:10.135Z,10.63
2018-08-12T05:36:10.459Z,10.67
2018-08-12T05:37:10.613Z,10.81
2018-08-12T05:38:10.851Z,10.89
2018-08-12T05:39:11.090Z,10.91
2018-08-12T05:40:11.329Z,10.88
2018-08-12T05:41:11.566Z,10.97
2018-08-12T05:42:11.805Z,10.91
2018-08-12T05:43:12.044Z,11.07
2018-08-12T05:44:12.282Z,11.03
2018-08-12T05:45:12.522Z,11.18
2018-08-12T05:46:12.760Z,11.22
2018-08-12T05:47:13.002Z,11.36
2018-08-12T05:48:13.238Z,11.29
2018-08-12T05:49:13.477Z,11.40
2018-08-12T05:50:13.716Z,11.33
2018-08-12T05:51:13.977Z,11.47
2018-08-12T05:52:14.194Z,11.51
2018-08-12T05:53:14.434Z,11.49
2018-08-12T05:54:14.673Z,11.55
2018-08-12T05:55:14.912Z,11.65
2018-08-12T05:56:15.152Z,11.69
2018-08-12T05:57:15.419Z,11.75
2018-08-12T05:58:15.630Z,11.80
2018-08-12T05:59:15.870Z,11.91
2018-08-12T06:00:16.110Z,11.91
2018-08-12T06:01:16.349Z,11.95
2018-08-12T06:02:16.590Z,12.16
2018-08-12T06:03:16.828Z,12.21
2018-08-12T06:04:17.069Z,12.31
2018-08-12T06:05:17.308Z,12.41
2018-08-12T06:06:17.548Z,12.35
2018-08-12T06:07:17.787Z,12.46
2018-08-12T06:08:18.030Z,12.56
2018-08-12T06:09:18.267Z,12.60
2018-08-12T06:10:18.507Z,12.77
2018-08-12T06:11:18.746Z,12.87
2018-08-12T06:12:18.987Z,12.86
2018-08-12T06:13:19.226Z,12.97
2018-08-12T06:14:19.467Z,13.01
2018-08-12T06:15:19.707Z,13.12
2018-08-12T06:16:19.948Z,13.14
2018-08-12T06:17:20.239Z,13.14
2018-08-12T06:18:20.426Z,13.28
2018-08-12T06:19:20.664Z,13.17
2018-08-12T06:20:20.905Z,13.23
2018-08-12T06:21:21.146Z,13.38
2018-08-12T06:22:21.388Z,13.42
2018-08-12T06:23:21.626Z,13.41
2018-08-12T06:24:21.867Z,13.55
2018-08-12T06:25:22.107Z,13.49
2018-08-12T06:26:22.350Z,13.51
2018-08-12T06:27:22.588Z,13.78
2018-08-12T06:28:22.828Z,13.81
2018-08-12T06:29:23.068Z,13.89
2018-08-12T06:30:23.308Z,14.03
2018-08-12T06:31:23.591Z,14.12
2018-08-12T06:32:23.813Z,14.22
2018-08-12T06:33:24.030Z,14.42
2018-08-12T06:34:24.297Z,14.69
2018-08-12T06:35:24.518Z,14.68
2018-08-12T06:36:24.757Z,14.78
2018-08-12T06:37:24.998Z,15.06
2018-08-12T06:38:25.246Z,15.09
2018-08-12T06:39:25.476Z,15.23
2018-08-12T06:40:25.723Z,15.44
2018-08-12T06:41:25.962Z,15.60
2018-08-12T06:42:26.204Z,15.84
2018-08-12T06:43:26.446Z,16.04
2018-08-12T06:44:26.690Z,16.28
2018-08-12T06:45:26.933Z,16.23
2018-08-12T06:46:27.198Z,16.38
2018-08-12T06:47:27.413Z,16.49
2018-08-12T06:48:27.655Z,16.63
2018-08-12T06:49:27.897Z,16.61
2018-08-12T06:50:28.139Z,16.75
2018-08-12T06:51:28.383Z,16.83
2018-08-12T06:52:28.627Z,16.85
2018-08-12T06:53:28.870Z,17.07
2018-08-12T06:54:29.109Z,17.26
2018-08-12T06:55:29.351Z,17.58
2018-08-12T06:56:29.595Z,17.79
2018-08-12T06:57:29.837Z,18.17
2018-08-12T06:58:30.080Z,18.91
2018-08-12T06:59:30.322Z,19.55
2018-08-12T07:00:30.597Z,20.10
2018-08-12T07:01:30.807Z,20.62
2018-08-12T07:02:31.052Z,20.99
2018-08-12T07:03:31.292Z,21.47
2018-08-12T07:04:31.536Z,21.96
2018-08-12T07:05:31.781Z,22.28
2018-08-12T07:06:32.025Z,22.27
2018-08-12T07:07:32.270Z,22.22
2018-08-12T07:08:32.511Z,22.77
2018-08-12T07:09:32.757Z,22.83
2018-08-12T07:10:32.995Z,23.00
2018-08-12T07:11:33.238Z,23.33
2018-08-12T07:12:33.482Z,23.70
2018-08-12T07:13:33.729Z,23.85
2018-08-12T07:14:33.956Z,24.13
2018-08-12T07:15:34.215Z,24.22
2018-08-12T07:16:34.460Z,24.60
2018-08-12T07:17:34.705Z,24.98
2018-08-12T07:18:34.950Z,25.25
2018-08-12T07:19:35.195Z,25.64
2018-08-12T07:20:35.459Z,24.80
2018-08-12T07:21:35.706Z,24.67
2018-08-12T07:22:35.952Z,24.68
2018-08-12T07:23:36.199Z,24.71
2018-08-12T07:24:36.495Z,24.52
2018-08-12T07:25:36.691Z,24.28
2018-08-12T07:26:36.938Z,22.90
2018-08-12T07:27:37.185Z,23.76
2018-08-12T07:28:37.437Z,24.40
2018-08-12T07:29:37.677Z,24.67
2018-08-12T07:30:37.929Z,25.23
2018-08-12T07:31:38.174Z,25.72
2018-08-12T07:32:38.420Z,26.13
2018-08-12T07:33:38.669Z,26.48
2018-08-12T07:34:38.917Z,27.10
2018-08-12T07:35:39.164Z,27.36
2018-08-12T07:36:39.411Z,27.69
2018-08-12T07:37:39.659Z,27.59
2018-08-12T07:38:39.913Z,27.88
2018-08-12T07:39:40.157Z,28.33
2018-08-12T07:40:40.405Z,28.49
2018-08-12T07:41:40.654Z,28.39
2018-08-12T07:42:40.903Z,28.34
2018-08-12T07:43:41.153Z,28.51
2018-08-12T07:44:41.402Z,28.58
2018-08-12T07:45:41.653Z,28.48
2018-08-12T07:46:41.901Z,28.46
2018-08-12T07:47:42.152Z,28.92
2018-08-12T07:48:42.406Z,29.24
2018-08-12T07:49:42.652Z,29.24
2018-08-12T07:50:42.890Z,28.78
2018-08-12T07:51:43.158Z,28.61
2018-08-12T07:52:43.409Z,28.83
2018-08-12T07:53:43.657Z,28.67
2018-08-12T07:54:43.908Z,28.74
2018-08-12T07:55:44.242Z,28.34
2018-08-12T07:56:44.406Z,28.00
2018-08-12T07:57:44.656Z,27.69
2018-08-12T07:58:44.907Z,27.99
2018-08-12T07:59:45.148Z,27.31
2018-08-12T08:00:45.448Z,27.54
2018-08-12T08:01:45.646Z,27.36
2018-08-12T08:02:45.898Z,27.32
2018-08-12T08:03:46.147Z,27.77
2018-08-12T08:04:46.400Z,28.29
2018-08-12T08:05:46.651Z,28.52
2018-08-12T08:06:46.901Z,29.15
2018-08-12T08:07:47.142Z,28.80
2018-08-12T08:08:47.413Z,28.77
2018-08-12T08:09:47.667Z,28.61
2018-08-12T08:10:47.914Z,28.24
2018-08-12T08:11:48.164Z,28.46
2018-08-12T08:12:48.416Z,28.39
2018-08-12T08:13:48.669Z,28.44
2018-08-12T08:14:48.919Z,27.78
2018-08-12T08:15:49.169Z,27.29
2018-08-12T08:16:49.421Z,27.63
2018-08-12T08:17:49.673Z,28.25
2018-08-12T08:18:49.930Z,28.48
2018-08-12T08:19:50.235Z,29.21
2018-08-12T08:20:50.429Z,29.30
2018-08-12T08:21:50.681Z,29.70
2018-08-12T08:22:50.929Z,29.41
2018-08-12T08:23:51.268Z,29.89
2018-08-12T08:24:51.526Z,30.11
2018-08-12T08:25:51.802Z,29.26
2018-08-12T08:26:52.027Z,28.59
2018-08-12T08:27:52.279Z,28.02
2018-08-12T08:28:52.557Z,27.25
2018-08-12T08:29:52.822Z,26.95
2018-08-12T08:30:53.113Z,27.10
2018-08-12T08:31:53.546Z,27.31
2018-08-12T08:32:53.630Z,28.07
2018-08-12T08:33:53.881Z,28.76
2018-08-12T08:34:54.133Z,29.04
2018-08-12T08:35:54.387Z,28.36
2018-08-12T08:36:54.639Z,28.68
2018-08-12T08:37:54.929Z,28.96
2018-08-12T08:38:55.143Z,28.89
2018-08-12T08:39:55.402Z,29.27
2018-08-12T08:40:55.645Z,29.36
2018-08-12T08:41:55.897Z,28.66
2018-08-12T08:42:56.149Z,29.02
2018-08-12T08:43:56.450Z,29.05
2018-08-12T08:44:56.651Z,28.77
2018-08-12T08:45:56.903Z,29.21
2018-08-12T08:46:57.154Z,28.81
2018-08-12T08:47:57.406Z,29.30
2018-08-12T08:48:57.657Z,29.11
2018-08-12T08:49:57.982Z,28.11
2018-08-12T08:50:58.161Z,28.40
2018-08-12T08:51:58.437Z,28.33
2018-08-12T08:52:58.665Z,28.00
2018-08-12T08:53:58.917Z,27.85
2018-08-12T08:54:59.171Z,27.36
2018-08-12T08:55:59.453Z,28.06
2018-08-12T08:56:59.675Z,27.74
2018-08-12T08:57:59.929Z,27.82
2018-08-12T08:59:00.177Z,28.03
2018-08-12T09:00:00.434Z,28.96
2018-08-12T09:01:00.678Z,28.46
2018-08-12T09:02:00.931Z,28.48
2018-08-12T09:03:01.180Z,28.81
2018-08-12T09:04:01.434Z,28.30
2018-08-12T09:05:01.688Z,27.75
2018-08-12T09:06:01.936Z,28.24
2018-08-12T09:07:02.223Z,29.02
2018-08-12T09:08:02.509Z,28.92
2018-08-12T09:09:02.916Z,29.26
2018-08-12T09:10:03.013Z,29.09
2018-08-12T09:11:03.269Z,29.92
2018-08-12T09:12:03.522Z,30.35
2018-08-12T09:13:03.773Z,29.90
2018-08-12T09:14:04.026Z,29.42
2018-08-12T09:15:04.275Z,29.74
2018-08-12T09:16:04.567Z,29.73
2018-08-12T09:17:04.821Z,29.14
2018-08-12T09:18:05.092Z,28.62
2018-08-12T09:19:05.333Z,27.81
2018-08-12T09:20:05.579Z,27.62
2018-08-12T09:21:05.830Z,28.00
2018-08-12T09:22:06.082Z,28.46
2018-08-12T09:23:06.335Z,29.06
2018-08-12T09:24:06.661Z,29.12
2018-08-12T09:25:06.839Z,28.95
2018-08-12T09:26:07.090Z,28.93
2018-08-12T09:27:07.343Z,29.09
2018-08-12T09:28:08.098Z,28.95
2018-08-12T09:29:07.862Z,29.26
2018-08-12T09:30:08.115Z,28.78
2018-08-12T09:31:08.399Z,28.68
2018-08-12T09:32:08.654Z,29.09
2018-08-12T09:33:08.904Z,29.21
2018-08-12T09:34:09.158Z,28.78
2018-08-12T09:35:09.409Z,28.76
2018-08-12T09:36:09.666Z,28.83
2018-08-12T09:37:09.914Z,28.52
2018-08-12T09:38:10.168Z,28.43
2018-08-12T09:39:10.421Z,28.30
2018-08-12T09:40:10.676Z,28.00
2018-08-12T09:41:10.919Z,28.51
2018-08-12T09:42:11.178Z,29.51
2018-08-12T09:43:11.499Z,30.61
2018-08-12T09:44:11.691Z,30.39
2018-08-12T09:45:11.936Z,30.16
2018-08-12T09:46:12.189Z,28.96
2018-08-12T09:47:12.441Z,29.11
2018-08-12T09:48:12.693Z,29.31
2018-08-12T09:49:12.938Z,30.20
2018-08-12T09:50:13.176Z,30.82
2018-08-12T09:51:13.428Z,30.77
2018-08-12T09:52:13.681Z,30.83
2018-08-12T09:53:14.151Z,29.94
2018-08-12T09:54:14.172Z,30.01
2018-08-12T09:55:14.426Z,30.51
2018-08-12T09:56:14.679Z,30.47
2018-08-12T09:57:14.932Z,30.02
2018-08-12T09:58:15.188Z,29.51
2018-08-12T09:59:15.440Z,29.27
2018-08-12T10:00:15.719Z,29.12
2018-08-12T10:01:15.948Z,29.30
2018-08-12T10:02:16.202Z,29.71
2018-08-12T10:03:16.453Z,30.24
2018-08-12T10:04:16.801Z,30.60
2018-08-12T10:05:17.061Z,28.27
2018-08-12T10:06:17.313Z,27.75
2018-08-12T10:07:17.569Z,28.58
2018-08-12T10:08:17.820Z,29.89
2018-08-12T10:09:18.075Z,30.20
2018-08-12T10:10:18.326Z,31.35
2018-08-12T10:11:18.572Z,32.28
2018-08-12T10:12:18.828Z,31.95
2018-08-12T10:13:19.082Z,31.56
2018-08-12T10:14:19.335Z,32.52
2018-08-12T10:15:19.581Z,32.08
2018-08-12T10:16:19.832Z,31.72
2018-08-12T10:17:20.086Z,31.07
2018-08-12T10:18:20.342Z,30.72
2018-08-12T10:19:20.594Z,30.27
2018-08-12T10:20:20.849Z,29.70
2018-08-12T10:21:21.109Z,28.44
2018-08-12T10:22:21.363Z,29.18
2018-08-12T10:23:21.603Z,29.55
2018-08-12T10:24:21.856Z,30.34
2018-08-12T10:25:22.114Z,27.78
2018-08-12T10:26:22.369Z,27.66
2018-08-12T10:27:22.622Z,29.11
2018-08-12T10:28:22.878Z,29.94
2018-08-12T10:29:23.229Z,30.79
2018-08-12T10:30:23.384Z,30.39
2018-08-12T10:31:23.654Z,29.04
2018-08-12T10:32:23.913Z,29.39
2018-08-12T10:33:24.165Z,30.00
2018-08-12T10:34:24.419Z,31.13
2018-08-12T10:35:24.668Z,31.76
2018-08-12T10:36:24.926Z,32.45
2018-08-12T10:37:25.181Z,31.73
2018-08-12T10:38:25.435Z,32.38
2018-08-12T10:39:25.688Z,31.91
2018-08-12T10:40:25.948Z,31.95
2018-08-12T10:41:26.198Z,31.65
2018-08-12T10:42:26.454Z,31.29
2018-08-12T10:43:26.709Z,30.83
2018-08-12T10:44:27.049Z,31.14
2018-08-12T10:45:27.223Z,30.94
2018-08-12T10:46:27.474Z,31.04
2018-08-12T10:47:27.728Z,31.92
2018-08-12T10:48:27.984Z,31.92
2018-08-12T10:49:28.239Z,32.22
2018-08-12T10:50:28.495Z,32.78
2018-08-12T10:51:28.749Z,32.65
2018-08-12T10:52:29.004Z,32.72
2018-08-12T10:53:29.259Z,32.84
2018-08-12T10:54:29.513Z,33.54
2018-08-12T10:55:29.770Z,32.78
2018-08-12T10:56:30.025Z,32.18
2018-08-12T10:57:30.290Z,32.11
2018-08-12T10:58:30.547Z,31.10
2018-08-12T10:59:30.900Z,30.79
2018-08-12T11:00:31.059Z,30.70
2018-08-12T11:01:31.315Z,30.67
2018-08-12T11:02:31.575Z,30.47
2018-08-12T11:03:31.827Z,30.75
2018-08-12T11:04:32.083Z,31.02
2018-08-12T11:05:32.338Z,30.24
2018-08-12T11:06:32.595Z,29.98
2018-08-12T11:07:32.914Z,30.57
2018-08-12T11:08:33.104Z,29.90
2018-08-12T11:09:33.357Z,30.35
2018-08-12T11:10:33.618Z,29.14
2018-08-12T11:11:33.870Z,29.60
2018-08-12T11:12:34.185Z,30.23
2018-08-12T11:13:34.379Z,31.20
2018-08-12T11:14:34.634Z,30.61
2018-08-12T11:15:34.886Z,29.64
2018-08-12T11:16:35.143Z,30.04
2018-08-12T11:17:35.396Z,30.89
2018-08-12T11:18:35.651Z,31.16
2018-08-12T11:19:35.905Z,31.32
2018-08-12T11:20:36.236Z,31.31
2018-08-12T11:21:36.415Z,31.31
2018-08-12T11:22:36.669Z,31.63
2018-08-12T11:23:36.924Z,32.47
2018-08-12T11:24:37.180Z,31.89
2018-08-12T11:25:37.433Z,31.69
2018-08-12T11:26:37.691Z,30.37
2018-08-12T11:27:37.947Z,29.76
2018-08-12T11:28:38.211Z,30.31
2018-08-12T11:29:38.457Z,30.04
2018-08-12T11:30:38.711Z,31.13
2018-08-12T11:31:38.968Z,31.91
2018-08-12T11:32:39.220Z,32.13
2018-08-12T11:33:39.474Z,32.99
2018-08-12T11:34:39.757Z,32.23
2018-08-12T11:35:39.988Z,31.69
2018-08-12T11:36:40.241Z,31.46
2018-08-12T11:37:40.496Z,30.84
2018-08-12T11:38:40.752Z,30.39
2018-08-12T11:39:41.009Z,30.49
2018-08-12T11:40:41.262Z,31.28
2018-08-12T11:41:41.516Z,32.10
2018-08-12T11:42:41.771Z,32.88
2018-08-12T11:43:42.027Z,32.21
2018-08-12T11:44:42.283Z,32.25
2018-08-12T11:45:42.537Z,32.88
2018-08-12T11:46:42.793Z,31.62
2018-08-12T11:47:43.049Z,32.43
2018-08-12T11:48:43.301Z,33.38
2018-08-12T11:49:43.556Z,34.06
2018-08-12T11:50:43.812Z,34.59
2018-08-12T11:51:44.065Z,33.79
2018-08-12T11:52:44.354Z,33.69
2018-08-12T11:53:44.576Z,33.44
2018-08-12T11:54:44.830Z,32.67
2018-08-12T11:55:45.088Z,30.57
2018-08-12T11:56:45.342Z,31.76
2018-08-12T11:57:45.598Z,31.89
2018-08-12T11:58:45.854Z,32.10
2018-08-12T11:59:46.109Z,32.07
2018-08-12T12:00:46.364Z,32.35
2018-08-12T12:01:46.619Z,33.47
2018-08-12T12:02:46.875Z,33.49
2018-08-12T12:03:47.130Z,33.75
2018-08-12T12:04:47.386Z,33.51
2018-08-12T12:05:47.641Z,33.16
2018-08-12T12:06:47.906Z,33.61
2018-08-12T12:07:48.150Z,34.02
2018-08-12T12:08:48.406Z,33.79
2018-08-12T12:09:48.662Z,33.54
2018-08-12T12:10:48.917Z,33.42
2018-08-12T12:11:49.172Z,32.41
2018-08-12T12:12:49.428Z,33.29
2018-08-12T12:13:49.683Z,32.97
2018-08-12T12:14:49.941Z,33.01
2018-08-12T12:15:50.196Z,33.42
2018-08-12T12:16:50.453Z,33.47
2018-08-12T12:17:50.711Z,32.52
2018-08-12T12:18:50.966Z,31.89
2018-08-12T12:19:51.223Z,30.83
2018-08-12T12:20:51.480Z,31.14
2018-08-12T12:21:51.734Z,31.43
2018-08-12T12:22:51.990Z,32.47
2018-08-12T12:23:52.245Z,33.15
2018-08-12T12:24:52.499Z,34.03
2018-08-12T12:25:52.770Z,34.64
2018-08-12T12:26:53.011Z,34.70
2018-08-12T12:27:53.267Z,34.59
2018-08-12T12:28:53.522Z,35.10
2018-08-12T12:29:53.777Z,34.49
2018-08-12T12:30:54.037Z,34.40
2018-08-12T12:31:54.288Z,33.14
2018-08-12T12:32:54.550Z,32.38
2018-08-12T12:33:54.809Z,32.43
2018-08-12T12:34:55.061Z,32.81
2018-08-12T12:35:55.319Z,33.68
2018-08-12T12:36:55.575Z,34.28
2018-08-12T12:37:55.835Z,34.21
2018-08-12T12:38:56.087Z,34.05
2018-08-12T12:39:56.341Z,34.27
2018-08-12T12:40:56.598Z,34.73
2018-08-12T12:41:56.845Z,34.34
2018-08-12T12:42:57.182Z,33.97
2018-08-12T12:43:57.365Z,33.01
2018-08-12T12:44:57.625Z,32.28
2018-08-12T12:45:57.877Z,33.14
2018-08-12T12:46:58.144Z,33.91
2018-08-12T12:47:58.389Z,33.98
2018-08-12T12:48:58.644Z,33.32
2018-08-12T12:49:58.899Z,34.16
2018-08-12T12:50:59.159Z,34.30
2018-08-12T12:51:59.413Z,33.82
2018-08-12T12:52:59.669Z,33.04
2018-08-12T12:53:59.924Z,33.22
2018-08-12T12:55:00.182Z,33.69
2018-08-12T12:56:00.437Z,33.81
2018-08-12T12:57:00.696Z,33.49
2018-08-12T12:58:01.001Z,33.12
2018-08-12T12:59:01.209Z,33.22
2018-08-12T13:00:01.462Z,32.65
2018-08-12T13:01:01.718Z,32.63
2018-08-12T13:02:01.984Z,32.44
2018-08-12T13:03:02.359Z,32.72